Pagina principale
METAR-TAF:

METAR-TAF

Aeroporti :

Comiso, Italia

Aeroporto di Comiso

latitudine: 36-59-30N, longitudine: 14-36-25E, altezza: 190 m

Osservazione

Il bollettino è stato emesso 1 ora e 21 minuti fa, alle 06:50 UTC
Vento 1 kt da direzioni variabili
Temperature 21°C
Umidità 46%
Pressione 1018 hPa
Visibilità 10 km o più
nessuna nube inferiore a 1500 m e nessun cumulonembo

METAR: LICB 270650Z VRB01KT CAVOK 21/09 Q1018

Ora: 10:11 (08:11 UTC)

Previsione

Il bollettino è stato emesso 3 ore e 11 minuti fa, alle 05:00 UTC
Previsione valida dal 27 alle 06 UTC al 27 alle 15 UTC
Vento 5 kt da direzioni variabili
Visibilità 10 km o più
Nubi sparse ad un'altezza di 3000 ft

TAF: LICB 270500Z 2706/2715 VRB05KT 9999 SCT030

Osservazioni e previsioni meteorologiche di più di 4000 aeroporti (messaggi METAR e TAF).

Le stazioni disponibili sono rappresentate dai dischi gialli e rossi sulla carta.

Puntare il mouse per vedere il nome della stazione.

Clicca sopra per visualizzare le osservazioni e previsioni meteorologiche.

Per cambiare la mappa : fare clic sui pulsanti verdi con una croce nera per ingrandire, il pulsante verde con un trattino per diminuire, o sulla freccia verde per le mappe adiacenti.


METAR-TAF: